sensor_id;sensor_type;location;lat;lon;timestamp;P1;durP1;ratioP1;P2;durP2;ratioP2
50128;SDS011;36026;45.478;9.224;2022-07-01T00:00:20;2.03;;;1.00;;
50128;SDS011;36026;45.478;9.224;2022-07-01T00:03:22;3.17;;;1.10;;
50128;SDS011;36026;45.478;9.224;2022-07-01T00:06:24;3.10;;;1.20;;
50128;SDS011;36026;45.478;9.224;2022-07-01T00:09:25;2.47;;;1.10;;
50128;SDS011;36026;45.478;9.224;2022-07-01T00:12:28;2.53;;;1.20;;
50128;SDS011;36026;45.478;9.224;2022-07-01T00:15:31;4.95;;;1.23;;
50128;SDS011;36026;45.478;9.224;2022-07-01T00:18:33;6.60;;;1.33;;
50128;SDS011;36026;45.478;9.224;2022-07-01T00:21:35;4.10;;;1.40;;
50128;SDS011;36026;45.478;9.224;2022-07-01T00:24:36;1.70;;;1.20;;
50128;SDS011;36026;45.478;9.224;2022-07-01T00:27:38;3.05;;;1.70;;
50128;SDS011;36026;45.478;9.224;2022-07-01T00:30:41;3.63;;;1.80;;
50128;SDS011;36026;45.478;9.224;2022-07-01T00:33:43;2.60;;;1.30;;
50128;SDS011;36026;45.478;9.224;2022-07-01T00:36:45;4.38;;;1.50;;
50128;SDS011;36026;45.478;9.224;2022-07-01T00:39:46;5.38;;;1.58;;
50128;SDS011;36026;45.478;9.224;2022-07-01T00:42:48;7.32;;;2.08;;
50128;SDS011;36026;45.478;9.224;2022-07-01T00:45:51;4.30;;;1.40;;
50128;SDS011;36026;45.478;9.224;2022-07-01T00:48:54;1.60;;;1.50;;
50128;SDS011;36026;45.478;9.224;2022-07-01T00:51:56;3.35;;;1.75;;
50128;SDS011;36026;45.478;9.224;2022-07-01T00:54:59;3.25;;;1.90;;
50128;SDS011;36026;45.478;9.224;2022-07-01T00:58:01;3.38;;;1.40;;
50128;SDS011;36026;45.478;9.224;2022-07-01T01:01:04;4.20;;;1.50;;
50128;SDS011;36026;45.478;9.224;2022-07-01T01:04:06;3.97;;;1.65;;
50128;SDS011;36026;45.478;9.224;2022-07-01T01:07:07;4.75;;;1.45;;
50128;SDS011;36026;45.478;9.224;2022-07-01T01:10:09;3.97;;;1.50;;
50128;SDS011;36026;45.478;9.224;2022-07-01T01:13:11;1.88;;;1.25;;
50128;SDS011;36026;45.478;9.224;2022-07-01T01:16:18;2.83;;;1.20;;
50128;SDS011;36026;45.478;9.224;2022-07-01T01:19:20;4.53;;;1.65;;
50128;SDS011;36026;45.478;9.224;2022-07-01T01:22:23;2.67;;;1.67;;
50128;SDS011;36026;45.478;9.224;2022-07-01T01:25:25;11.18;;;1.23;;
50128;SDS011;36026;45.478;9.224;2022-07-01T01:28:27;1.75;;;1.40;;
50128;SDS011;36026;45.478;9.224;2022-07-01T01:31:29;3.30;;;1.10;;
50128;SDS011;36026;45.478;9.224;2022-07-01T01:34:33;2.35;;;1.20;;
50128;SDS011;36026;45.478;9.224;2022-07-01T01:37:37;3.08;;;1.27;;
50128;SDS011;36026;45.478;9.224;2022-07-01T01:40:38;2.95;;;1.55;;
50128;SDS011;36026;45.478;9.224;2022-07-01T01:43:40;1.80;;;1.23;;
50128;SDS011;36026;45.478;9.224;2022-07-01T01:46:42;2.67;;;1.38;;
50128;SDS011;36026;45.478;9.224;2022-07-01T01:49:43;2.08;;;1.10;;
50128;SDS011;36026;45.478;9.224;2022-07-01T01:52:47;1.83;;;1.20;;
50128;SDS011;36026;45.478;9.224;2022-07-01T01:55:49;3.55;;;1.48;;
50128;SDS011;36026;45.478;9.224;2022-07-01T01:58:51;4.57;;;1.40;;
50128;SDS011;36026;45.478;9.224;2022-07-01T02:01:52;2.35;;;1.00;;
50128;SDS011;36026;45.478;9.224;2022-07-01T02:04:54;2.30;;;1.30;;
50128;SDS011;36026;45.478;9.224;2022-07-01T02:07:57;3.13;;;1.40;;
50128;SDS011;36026;45.478;9.224;2022-07-01T02:10:59;3.58;;;1.67;;
50128;SDS011;36026;45.478;9.224;2022-07-01T02:14:01;3.60;;;1.70;;
50128;SDS011;36026;45.478;9.224;2022-07-01T02:17:02;1.95;;;1.50;;
50128;SDS011;36026;45.478;9.224;2022-07-01T02:20:05;4.85;;;1.55;;
50128;SDS011;36026;45.478;9.224;2022-07-01T02:23:08;3.20;;;1.50;;
50128;SDS011;36026;45.478;9.224;2022-07-01T02:26:10;2.95;;;1.92;;
50128;SDS011;36026;45.478;9.224;2022-07-01T02:29:12;2.63;;;1.50;;
50128;SDS011;36026;45.478;9.224;2022-07-01T02:32:14;4.25;;;1.70;;
50128;SDS011;36026;45.478;9.224;2022-07-01T02:35:16;2.53;;;1.60;;
50128;SDS011;36026;45.478;9.224;2022-07-01T02:38:19;3.30;;;1.80;;
50128;SDS011;36026;45.478;9.224;2022-07-01T02:41:20;11.55;;;2.25;;
50128;SDS011;36026;45.478;9.224;2022-07-01T02:44:22;3.00;;;2.05;;
50128;SDS011;36026;45.478;9.224;2022-07-01T02:47:24;3.83;;;1.77;;
50128;SDS011;36026;45.478;9.224;2022-07-01T02:50:26;3.03;;;2.05;;
50128;SDS011;36026;45.478;9.224;2022-07-01T02:53:30;3.97;;;1.70;;
50128;SDS011;36026;45.478;9.224;2022-07-01T02:56:32;3.47;;;1.63;;
50128;SDS011;36026;45.478;9.224;2022-07-01T02:59:34;4.55;;;1.60;;
50128;SDS011;36026;45.478;9.224;2022-07-01T03:02:35;4.50;;;2.00;;
50128;SDS011;36026;45.478;9.224;2022-07-01T03:05:37;8.13;;;3.47;;
50128;SDS011;36026;45.478;9.224;2022-07-01T03:08:40;3.60;;;2.00;;
50128;SDS011;36026;45.478;9.224;2022-07-01T03:11:42;5.60;;;3.35;;
50128;SDS011;36026;45.478;9.224;2022-07-01T03:14:44;5.22;;;2.35;;
50128;SDS011;36026;45.478;9.224;2022-07-01T03:17:46;6.95;;;3.22;;
50128;SDS011;36026;45.478;9.224;2022-07-01T03:20:48;6.03;;;3.65;;
50128;SDS011;36026;45.478;9.224;2022-07-01T03:26:54;7.78;;;5.50;;
50128;SDS011;36026;45.478;9.224;2022-07-01T03:29:56;12.10;;;4.85;;
50128;SDS011;36026;45.478;9.224;2022-07-01T03:32:57;13.55;;;9.25;;
50128;SDS011;36026;45.478;9.224;2022-07-01T03:35:59;17.85;;;8.18;;
50128;SDS011;36026;45.478;9.224;2022-07-01T03:39:02;18.23;;;9.65;;
50128;SDS011;36026;45.478;9.224;2022-07-01T03:42:05;13.63;;;9.02;;
50128;SDS011;36026;45.478;9.224;2022-07-01T03:45:08;17.23;;;9.13;;
50128;SDS011;36026;45.478;9.224;2022-07-01T03:48:10;14.10;;;9.20;;
50128;SDS011;36026;45.478;9.224;2022-07-01T03:51:12;15.13;;;9.98;;
50128;SDS011;36026;45.478;9.224;2022-07-01T03:54:15;14.45;;;9.35;;
50128;SDS011;36026;45.478;9.224;2022-07-01T03:57:32;12.50;;;9.23;;
50128;SDS011;36026;45.478;9.224;2022-07-01T04:00:35;15.85;;;9.07;;
50128;SDS011;36026;45.478;9.224;2022-07-01T04:03:37;13.25;;;7.90;;
50128;SDS011;36026;45.478;9.224;2022-07-01T04:06:38;13.23;;;8.65;;
50128;SDS011;36026;45.478;9.224;2022-07-01T04:09:42;13.65;;;9.15;;
50128;SDS011;36026;45.478;9.224;2022-07-01T04:15:46;11.50;;;7.25;;
50128;SDS011;36026;45.478;9.224;2022-07-01T04:18:47;11.57;;;7.57;;
50128;SDS011;36026;45.478;9.224;2022-07-01T04:21:49;8.93;;;6.30;;
50128;SDS011;36026;45.478;9.224;2022-07-01T04:25:10;11.18;;;6.20;;
50128;SDS011;36026;45.478;9.224;2022-07-01T04:28:11;12.85;;;5.72;;
50128;SDS011;36026;45.478;9.224;2022-07-01T04:31:13;8.32;;;4.80;;
50128;SDS011;36026;45.478;9.224;2022-07-01T04:34:15;9.35;;;5.00;;
50128;SDS011;36026;45.478;9.224;2022-07-01T04:37:18;10.55;;;5.55;;
50128;SDS011;36026;45.478;9.224;2022-07-01T04:40:21;11.32;;;5.50;;
50128;SDS011;36026;45.478;9.224;2022-07-01T04:46:23;12.73;;;6.65;;
50128;SDS011;36026;45.478;9.224;2022-07-01T04:49:26;10.93;;;6.07;;
50128;SDS011;36026;45.478;9.224;2022-07-01T04:52:27;19.13;;;7.05;;
50128;SDS011;36026;45.478;9.224;2022-07-01T04:55:30;11.65;;;7.50;;
50128;SDS011;36026;45.478;9.224;2022-07-01T04:58:32;10.15;;;7.60;;
50128;SDS011;36026;45.478;9.224;2022-07-01T05:01:34;15.85;;;7.38;;
50128;SDS011;36026;45.478;9.224;2022-07-01T05:04:35;11.57;;;8.88;;
50128;SDS011;36026;45.478;9.224;2022-07-01T05:07:37;16.92;;;8.13;;
50128;SDS011;36026;45.478;9.224;2022-07-01T05:10:40;15.23;;;8.60;;
50128;SDS011;36026;45.478;9.224;2022-07-01T05:13:42;17.85;;;11.05;;
50128;SDS011;36026;45.478;9.224;2022-07-01T05:16:44;14.60;;;10.00;;
50128;SDS011;36026;45.478;9.224;2022-07-01T05:19:46;14.63;;;9.80;;
50128;SDS011;36026;45.478;9.224;2022-07-01T05:23:05;18.60;;;12.63;;
50128;SDS011;36026;45.478;9.224;2022-07-01T05:26:08;21.95;;;12.70;;
50128;SDS011;36026;45.478;9.224;2022-07-01T05:29:15;15.85;;;12.52;;
50128;SDS011;36026;45.478;9.224;2022-07-01T05:32:17;19.15;;;12.82;;
50128;SDS011;36026;45.478;9.224;2022-07-01T05:35:18;20.13;;;14.45;;
50128;SDS011;36026;45.478;9.224;2022-07-01T05:38:20;20.73;;;13.15;;
50128;SDS011;36026;45.478;9.224;2022-07-01T05:41:23;21.27;;;14.85;;
50128;SDS011;36026;45.478;9.224;2022-07-01T05:44:25;19.63;;;14.68;;
50128;SDS011;36026;45.478;9.224;2022-07-01T05:47:27;20.10;;;15.40;;
50128;SDS011;36026;45.478;9.224;2022-07-01T05:50:28;470.20;;;51.38;;
50128;SDS011;36026;45.478;9.224;2022-07-01T05:53:30;21.90;;;16.48;;
50128;SDS011;36026;45.478;9.224;2022-07-01T05:56:33;22.75;;;17.52;;
50128;SDS011;36026;45.478;9.224;2022-07-01T05:59:35;24.92;;;17.60;;
50128;SDS011;36026;45.478;9.224;2022-07-01T06:02:37;21.90;;;16.25;;
50128;SDS011;36026;45.478;9.224;2022-07-01T06:05:39;23.08;;;16.08;;
50128;SDS011;36026;45.478;9.224;2022-07-01T06:08:40;22.80;;;15.90;;
50128;SDS011;36026;45.478;9.224;2022-07-01T06:11:43;24.33;;;16.38;;
50128;SDS011;36026;45.478;9.224;2022-07-01T06:14:46;24.90;;;16.27;;
50128;SDS011;36026;45.478;9.224;2022-07-01T06:17:47;23.20;;;17.00;;
50128;SDS011;36026;45.478;9.224;2022-07-01T06:20:49;23.75;;;17.38;;
50128;SDS011;36026;45.478;9.224;2022-07-01T06:23:51;23.13;;;15.35;;
50128;SDS011;36026;45.478;9.224;2022-07-01T06:26:54;24.13;;;16.48;;
50128;SDS011;36026;45.478;9.224;2022-07-01T06:29:56;25.88;;;16.70;;
50128;SDS011;36026;45.478;9.224;2022-07-01T06:32:57;24.50;;;17.77;;
50128;SDS011;36026;45.478;9.224;2022-07-01T06:35:59;24.48;;;17.45;;
50128;SDS011;36026;45.478;9.224;2022-07-01T06:39:01;30.48;;;17.65;;
50128;SDS011;36026;45.478;9.224;2022-07-01T06:42:05;23.65;;;17.08;;
50128;SDS011;36026;45.478;9.224;2022-07-01T06:45:07;26.50;;;17.95;;
50128;SDS011;36026;45.478;9.224;2022-07-01T06:48:09;27.90;;;18.47;;
50128;SDS011;36026;45.478;9.224;2022-07-01T06:51:11;23.10;;;17.90;;
50128;SDS011;36026;45.478;9.224;2022-07-01T06:54:12;31.35;;;19.27;;
50128;SDS011;36026;45.478;9.224;2022-07-01T06:57:15;25.63;;;17.65;;
50128;SDS011;36026;45.478;9.224;2022-07-01T07:00:17;23.70;;;18.58;;
50128;SDS011;36026;45.478;9.224;2022-07-01T07:03:19;27.92;;;18.50;;
50128;SDS011;36026;45.478;9.224;2022-07-01T07:06:20;27.02;;;18.42;;
50128;SDS011;36026;45.478;9.224;2022-07-01T07:09:22;25.30;;;19.45;;
50128;SDS011;36026;45.478;9.224;2022-07-01T07:12:25;26.10;;;18.75;;
50128;SDS011;36026;45.478;9.224;2022-07-01T07:18:28;26.15;;;18.75;;
50128;SDS011;36026;45.478;9.224;2022-07-01T07:21:30;24.17;;;18.98;;
50128;SDS011;36026;45.478;9.224;2022-07-01T07:24:32;22.60;;;16.60;;
50128;SDS011;36026;45.478;9.224;2022-07-01T07:27:35;21.63;;;16.77;;
50128;SDS011;36026;45.478;9.224;2022-07-01T07:30:37;27.65;;;17.40;;
50128;SDS011;36026;45.478;9.224;2022-07-01T07:33:38;17.25;;;13.07;;
50128;SDS011;36026;45.478;9.224;2022-07-01T07:36:40;10.65;;;7.60;;
50128;SDS011;36026;45.478;9.224;2022-07-01T07:39:42;13.32;;;7.20;;
50128;SDS011;36026;45.478;9.224;2022-07-01T07:42:45;21.15;;;8.38;;
50128;SDS011;36026;45.478;9.224;2022-07-01T07:45:47;10.65;;;7.15;;
50128;SDS011;36026;45.478;9.224;2022-07-01T07:48:49;6.72;;;4.75;;
50128;SDS011;36026;45.478;9.224;2022-07-01T07:51:51;4.43;;;2.45;;
50128;SDS011;36026;45.478;9.224;2022-07-01T07:54:53;8.73;;;2.83;;
50128;SDS011;36026;45.478;9.224;2022-07-01T07:57:56;6.00;;;2.00;;
50128;SDS011;36026;45.478;9.224;2022-07-01T08:00:58;3.45;;;2.25;;
50128;SDS011;36026;45.478;9.224;2022-07-01T08:03:59;4.00;;;1.80;;
50128;SDS011;36026;45.478;9.224;2022-07-01T08:07:01;3.03;;;1.85;;
50128;SDS011;36026;45.478;9.224;2022-07-01T08:10:03;4.72;;;2.30;;
50128;SDS011;36026;45.478;9.224;2022-07-01T08:13:06;3.90;;;1.90;;
50128;SDS011;36026;45.478;9.224;2022-07-01T08:16:08;5.97;;;1.85;;
50128;SDS011;36026;45.478;9.224;2022-07-01T08:19:10;6.57;;;2.03;;
50128;SDS011;36026;45.478;9.224;2022-07-01T08:22:11;2.70;;;1.65;;
50128;SDS011;36026;45.478;9.224;2022-07-01T08:25:13;2.60;;;1.75;;
50128;SDS011;36026;45.478;9.224;2022-07-01T08:28:16;3.13;;;1.65;;
50128;SDS011;36026;45.478;9.224;2022-07-01T08:31:18;3.72;;;1.73;;
50128;SDS011;36026;45.478;9.224;2022-07-01T08:34:20;4.60;;;1.63;;
50128;SDS011;36026;45.478;9.224;2022-07-01T08:37:21;8.88;;;1.70;;
50128;SDS011;36026;45.478;9.224;2022-07-01T08:40:24;7.57;;;1.83;;
50128;SDS011;36026;45.478;9.224;2022-07-01T08:43:28;2.40;;;1.50;;
50128;SDS011;36026;45.478;9.224;2022-07-01T08:49:31;3.15;;;1.48;;
50128;SDS011;36026;45.478;9.224;2022-07-01T08:52:32;2.88;;;1.48;;
50128;SDS011;36026;45.478;9.224;2022-07-01T08:55:36;1.75;;;1.60;;
50128;SDS011;36026;45.478;9.224;2022-07-01T08:58:59;4.93;;;1.65;;
50128;SDS011;36026;45.478;9.224;2022-07-01T09:02:01;2.58;;;1.67;;
50128;SDS011;36026;45.478;9.224;2022-07-01T09:05:05;4.43;;;1.80;;
50128;SDS011;36026;45.478;9.224;2022-07-01T09:08:07;2.60;;;1.60;;
50128;SDS011;36026;45.478;9.224;2022-07-01T09:11:12;4.70;;;1.67;;
50128;SDS011;36026;45.478;9.224;2022-07-01T09:14:16;2.42;;;1.42;;
50128;SDS011;36026;45.478;9.224;2022-07-01T09:17:18;5.03;;;1.65;;
50128;SDS011;36026;45.478;9.224;2022-07-01T09:20:27;7.20;;;1.90;;
50128;SDS011;36026;45.478;9.224;2022-07-01T09:23:30;4.72;;;1.90;;
50128;SDS011;36026;45.478;9.224;2022-07-01T09:26:33;5.28;;;1.90;;
50128;SDS011;36026;45.478;9.224;2022-07-01T09:29:37;3.03;;;1.60;;
50128;SDS011;36026;45.478;9.224;2022-07-01T09:32:39;6.00;;;2.08;;
50128;SDS011;36026;45.478;9.224;2022-07-01T09:35:41;5.80;;;1.90;;
50128;SDS011;36026;45.478;9.224;2022-07-01T09:38:45;3.35;;;1.95;;
50128;SDS011;36026;45.478;9.224;2022-07-01T09:41:48;3.58;;;1.55;;
50128;SDS011;36026;45.478;9.224;2022-07-01T09:44:55;2.77;;;1.83;;
50128;SDS011;36026;45.478;9.224;2022-07-01T09:47:58;2.75;;;1.80;;
50128;SDS011;36026;45.478;9.224;2022-07-01T09:50:59;4.57;;;1.80;;
50128;SDS011;36026;45.478;9.224;2022-07-01T09:54:01;3.08;;;1.70;;
50128;SDS011;36026;45.478;9.224;2022-07-01T09:57:03;3.57;;;1.90;;
50128;SDS011;36026;45.478;9.224;2022-07-01T10:03:09;4.88;;;1.75;;
50128;SDS011;36026;45.478;9.224;2022-07-01T10:06:14;5.63;;;1.80;;
50128;SDS011;36026;45.478;9.224;2022-07-01T10:09:43;6.82;;;2.05;;
50128;SDS011;36026;45.478;9.224;2022-07-01T10:12:54;3.72;;;1.70;;
50128;SDS011;36026;45.478;9.224;2022-07-01T10:15:57;3.63;;;2.00;;
50128;SDS011;36026;45.478;9.224;2022-07-01T10:18:59;6.40;;;2.00;;
50128;SDS011;36026;45.478;9.224;2022-07-01T10:25:39;2.63;;;1.75;;
50128;SDS011;36026;45.478;9.224;2022-07-01T10:28:42;2.72;;;1.67;;
50128;SDS011;36026;45.478;9.224;2022-07-01T10:31:45;3.65;;;1.55;;
50128;SDS011;36026;45.478;9.224;2022-07-01T10:34:47;3.08;;;1.95;;
50128;SDS011;36026;45.478;9.224;2022-07-01T10:37:58;3.92;;;1.90;;
50128;SDS011;36026;45.478;9.224;2022-07-01T10:41:00;8.93;;;2.03;;
50128;SDS011;36026;45.478;9.224;2022-07-01T10:44:10;3.35;;;1.80;;
50128;SDS011;36026;45.478;9.224;2022-07-01T10:47:14;4.60;;;1.83;;
50128;SDS011;36026;45.478;9.224;2022-07-01T10:50:16;10.85;;;7.63;;
50128;SDS011;36026;45.478;9.224;2022-07-01T10:53:19;9.07;;;6.10;;
50128;SDS011;36026;45.478;9.224;2022-07-01T10:56:23;3.25;;;2.00;;
50128;SDS011;36026;45.478;9.224;2022-07-01T10:59:39;2.72;;;1.77;;
50128;SDS011;36026;45.478;9.224;2022-07-01T11:02:42;3.80;;;2.15;;
50128;SDS011;36026;45.478;9.224;2022-07-01T11:05:44;5.20;;;2.17;;
50128;SDS011;36026;45.478;9.224;2022-07-01T11:08:47;2.60;;;1.75;;
50128;SDS011;36026;45.478;9.224;2022-07-01T11:11:49;7.65;;;2.25;;
50128;SDS011;36026;45.478;9.224;2022-07-01T11:14:51;3.60;;;1.63;;
50128;SDS011;36026;45.478;9.224;2022-07-01T11:17:55;5.97;;;2.03;;
50128;SDS011;36026;45.478;9.224;2022-07-01T11:21:07;3.83;;;1.70;;
50128;SDS011;36026;45.478;9.224;2022-07-01T11:24:10;15.10;;;13.60;;
50128;SDS011;36026;45.478;9.224;2022-07-01T11:27:11;5.15;;;3.58;;
50128;SDS011;36026;45.478;9.224;2022-07-01T11:30:13;11.32;;;5.68;;
50128;SDS011;36026;45.478;9.224;2022-07-01T11:33:17;16.20;;;8.18;;
50128;SDS011;36026;45.478;9.224;2022-07-01T11:36:18;4.53;;;2.72;;
50128;SDS011;36026;45.478;9.224;2022-07-01T11:39:38;8.60;;;4.70;;
50128;SDS011;36026;45.478;9.224;2022-07-01T11:42:42;5.82;;;3.40;;
50128;SDS011;36026;45.478;9.224;2022-07-01T11:45:43;7.32;;;3.88;;
50128;SDS011;36026;45.478;9.224;2022-07-01T11:48:48;8.20;;;4.82;;
50128;SDS011;36026;45.478;9.224;2022-07-01T11:51:55;11.05;;;5.28;;
50128;SDS011;36026;45.478;9.224;2022-07-01T11:54:57;18.20;;;11.40;;
50128;SDS011;36026;45.478;9.224;2022-07-01T11:57:59;5.70;;;2.85;;
50128;SDS011;36026;45.478;9.224;2022-07-01T12:01:01;3.25;;;2.38;;
50128;SDS011;36026;45.478;9.224;2022-07-01T12:04:05;5.75;;;2.50;;
50128;SDS011;36026;45.478;9.224;2022-07-01T12:07:08;8.38;;;4.00;;
50128;SDS011;36026;45.478;9.224;2022-07-01T12:10:11;11.35;;;6.15;;
50128;SDS011;36026;45.478;9.224;2022-07-01T12:13:22;5.13;;;1.95;;
50128;SDS011;36026;45.478;9.224;2022-07-01T12:16:24;4.25;;;1.90;;
50128;SDS011;36026;45.478;9.224;2022-07-01T12:19:28;7.32;;;2.08;;
50128;SDS011;36026;45.478;9.224;2022-07-01T12:22:30;2.28;;;1.95;;
50128;SDS011;36026;45.478;9.224;2022-07-01T12:25:31;2.58;;;1.95;;
50128;SDS011;36026;45.478;9.224;2022-07-01T12:28:38;2.83;;;1.90;;
50128;SDS011;36026;45.478;9.224;2022-07-01T12:31:40;4.10;;;1.90;;
50128;SDS011;36026;45.478;9.224;2022-07-01T12:34:44;3.88;;;2.00;;
50128;SDS011;36026;45.478;9.224;2022-07-01T12:37:47;3.47;;;2.30;;
50128;SDS011;36026;45.478;9.224;2022-07-01T12:43:50;4.03;;;1.95;;
50128;SDS011;36026;45.478;9.224;2022-07-01T12:46:52;3.95;;;1.80;;
50128;SDS011;36026;45.478;9.224;2022-07-01T12:50:14;4.93;;;2.63;;
50128;SDS011;36026;45.478;9.224;2022-07-01T12:53:18;8.02;;;2.00;;
50128;SDS011;36026;45.478;9.224;2022-07-01T12:56:21;6.60;;;2.00;;
50128;SDS011;36026;45.478;9.224;2022-07-01T12:59:24;4.57;;;2.05;;
50128;SDS011;36026;45.478;9.224;2022-07-01T13:05:29;6.63;;;2.20;;
50128;SDS011;36026;45.478;9.224;2022-07-01T13:08:31;2.20;;;1.60;;
50128;SDS011;36026;45.478;9.224;2022-07-01T13:14:35;4.50;;;1.77;;
50128;SDS011;36026;45.478;9.224;2022-07-01T13:17:36;2.22;;;1.60;;
50128;SDS011;36026;45.478;9.224;2022-07-01T13:20:40;3.58;;;1.80;;
50128;SDS011;36026;45.478;9.224;2022-07-01T13:23:42;3.67;;;1.60;;
50128;SDS011;36026;45.478;9.224;2022-07-01T13:26:43;5.45;;;1.75;;
50128;SDS011;36026;45.478;9.224;2022-07-01T13:29:45;4.50;;;1.98;;
50128;SDS011;36026;45.478;9.224;2022-07-01T13:32:46;3.58;;;1.90;;
50128;SDS011;36026;45.478;9.224;2022-07-01T13:35:53;5.85;;;1.90;;
50128;SDS011;36026;45.478;9.224;2022-07-01T13:38:55;4.05;;;1.85;;
50128;SDS011;36026;45.478;9.224;2022-07-01T13:41:56;5.95;;;2.10;;
50128;SDS011;36026;45.478;9.224;2022-07-01T13:44:58;3.50;;;1.85;;
50128;SDS011;36026;45.478;9.224;2022-07-01T13:48:00;4.13;;;1.90;;
50128;SDS011;36026;45.478;9.224;2022-07-01T13:51:03;12.65;;;1.92;;
50128;SDS011;36026;45.478;9.224;2022-07-01T13:54:04;4.15;;;2.20;;
50128;SDS011;36026;45.478;9.224;2022-07-01T13:57:06;4.80;;;1.92;;
50128;SDS011;36026;45.478;9.224;2022-07-01T14:00:08;3.95;;;2.35;;
50128;SDS011;36026;45.478;9.224;2022-07-01T14:03:11;11.38;;;7.30;;
50128;SDS011;36026;45.478;9.224;2022-07-01T14:06:14;20.80;;;11.23;;
50128;SDS011;36026;45.478;9.224;2022-07-01T14:09:16;7.53;;;6.45;;
50128;SDS011;36026;45.478;9.224;2022-07-01T14:12:17;4.45;;;1.80;;
50128;SDS011;36026;45.478;9.224;2022-07-01T14:15:19;2.65;;;2.10;;
50128;SDS011;36026;45.478;9.224;2022-07-01T14:18:21;5.40;;;2.15;;
50128;SDS011;36026;45.478;9.224;2022-07-01T14:21:24;3.70;;;1.77;;
50128;SDS011;36026;45.478;9.224;2022-07-01T14:24:26;2.92;;;1.73;;
50128;SDS011;36026;45.478;9.224;2022-07-01T14:27:28;5.25;;;2.00;;
50128;SDS011;36026;45.478;9.224;2022-07-01T14:30:29;3.35;;;2.22;;
50128;SDS011;36026;45.478;9.224;2022-07-01T14:33:31;4.35;;;3.08;;
50128;SDS011;36026;45.478;9.224;2022-07-01T14:36:34;2.85;;;2.08;;
50128;SDS011;36026;45.478;9.224;2022-07-01T14:39:35;4.88;;;2.15;;
50128;SDS011;36026;45.478;9.224;2022-07-01T14:42:37;7.30;;;1.97;;
50128;SDS011;36026;45.478;9.224;2022-07-01T14:45:39;3.53;;;2.17;;
50128;SDS011;36026;45.478;9.224;2022-07-01T14:48:41;3.55;;;1.92;;
50128;SDS011;36026;45.478;9.224;2022-07-01T14:51:44;7.87;;;2.37;;
50128;SDS011;36026;45.478;9.224;2022-07-01T14:54:46;6.75;;;2.83;;
50128;SDS011;36026;45.478;9.224;2022-07-01T14:57:49;4.90;;;2.25;;
50128;SDS011;36026;45.478;9.224;2022-07-01T15:00:51;2.83;;;2.07;;
50128;SDS011;36026;45.478;9.224;2022-07-01T15:03:52;4.57;;;2.00;;
50128;SDS011;36026;45.478;9.224;2022-07-01T15:06:56;3.30;;;2.00;;
50128;SDS011;36026;45.478;9.224;2022-07-01T15:09:58;3.45;;;1.95;;
50128;SDS011;36026;45.478;9.224;2022-07-01T15:13:01;4.00;;;1.95;;
50128;SDS011;36026;45.478;9.224;2022-07-01T15:16:03;4.40;;;1.83;;
50128;SDS011;36026;45.478;9.224;2022-07-01T15:19:05;2.67;;;1.80;;
50128;SDS011;36026;45.478;9.224;2022-07-01T15:22:08;2.67;;;1.70;;
50128;SDS011;36026;45.478;9.224;2022-07-01T15:25:11;3.08;;;1.40;;
50128;SDS011;36026;45.478;9.224;2022-07-01T15:28:16;2.85;;;1.45;;
50128;SDS011;36026;45.478;9.224;2022-07-01T15:31:18;3.33;;;1.35;;
50128;SDS011;36026;45.478;9.224;2022-07-01T15:34:19;5.05;;;1.70;;
50128;SDS011;36026;45.478;9.224;2022-07-01T15:37:23;3.60;;;1.90;;
50128;SDS011;36026;45.478;9.224;2022-07-01T15:40:24;3.33;;;1.65;;
50128;SDS011;36026;45.478;9.224;2022-07-01T15:43:26;4.13;;;2.00;;
50128;SDS011;36026;45.478;9.224;2022-07-01T15:46:28;4.80;;;1.87;;
50128;SDS011;36026;45.478;9.224;2022-07-01T15:49:30;4.03;;;1.67;;
50128;SDS011;36026;45.478;9.224;2022-07-01T15:52:33;3.05;;;1.95;;
50128;SDS011;36026;45.478;9.224;2022-07-01T15:55:35;3.55;;;1.58;;
50128;SDS011;36026;45.478;9.224;2022-07-01T15:58:38;2.28;;;1.58;;
50128;SDS011;36026;45.478;9.224;2022-07-01T16:01:39;2.15;;;1.58;;
50128;SDS011;36026;45.478;9.224;2022-07-01T16:04:42;2.03;;;1.50;;
50128;SDS011;36026;45.478;9.224;2022-07-01T16:07:47;3.97;;;1.70;;
50128;SDS011;36026;45.478;9.224;2022-07-01T16:10:51;3.75;;;1.73;;
50128;SDS011;36026;45.478;9.224;2022-07-01T16:16:56;3.22;;;1.70;;
50128;SDS011;36026;45.478;9.224;2022-07-01T16:23:01;2.17;;;1.50;;
50128;SDS011;36026;45.478;9.224;2022-07-01T16:26:03;2.53;;;1.65;;
50128;SDS011;36026;45.478;9.224;2022-07-01T16:29:05;6.80;;;1.95;;
50128;SDS011;36026;45.478;9.224;2022-07-01T16:32:07;2.97;;;1.67;;
50128;SDS011;36026;45.478;9.224;2022-07-01T16:35:09;4.15;;;1.70;;
50128;SDS011;36026;45.478;9.224;2022-07-01T16:38:14;3.28;;;1.55;;
50128;SDS011;36026;45.478;9.224;2022-07-01T16:41:23;4.32;;;1.60;;
50128;SDS011;36026;45.478;9.224;2022-07-01T16:44:34;5.20;;;1.80;;
50128;SDS011;36026;45.478;9.224;2022-07-01T16:47:40;3.03;;;1.92;;
50128;SDS011;36026;45.478;9.224;2022-07-01T16:50:45;3.58;;;1.77;;
50128;SDS011;36026;45.478;9.224;2022-07-01T16:53:51;3.05;;;1.65;;
50128;SDS011;36026;45.478;9.224;2022-07-01T16:56:53;2.88;;;1.70;;
50128;SDS011;36026;45.478;9.224;2022-07-01T16:59:57;6.00;;;2.20;;
50128;SDS011;36026;45.478;9.224;2022-07-01T17:02:59;4.32;;;1.58;;
50128;SDS011;36026;45.478;9.224;2022-07-01T17:06:02;7.07;;;1.83;;
50128;SDS011;36026;45.478;9.224;2022-07-01T17:09:05;6.93;;;1.95;;
50128;SDS011;36026;45.478;9.224;2022-07-01T17:12:07;5.20;;;2.15;;
50128;SDS011;36026;45.478;9.224;2022-07-01T17:15:12;5.53;;;1.90;;
50128;SDS011;36026;45.478;9.224;2022-07-01T17:18:14;8.75;;;2.35;;
50128;SDS011;36026;45.478;9.224;2022-07-01T17:21:16;4.25;;;2.10;;
50128;SDS011;36026;45.478;9.224;2022-07-01T17:24:19;3.67;;;1.80;;
50128;SDS011;36026;45.478;9.224;2022-07-01T17:27:25;5.38;;;2.25;;
50128;SDS011;36026;45.478;9.224;2022-07-01T17:30:33;6.53;;;1.90;;
50128;SDS011;36026;45.478;9.224;2022-07-01T17:33:38;4.55;;;2.10;;
50128;SDS011;36026;45.478;9.224;2022-07-01T17:36:41;5.35;;;2.60;;
50128;SDS011;36026;45.478;9.224;2022-07-01T17:39:45;4.20;;;2.05;;
50128;SDS011;36026;45.478;9.224;2022-07-01T17:42:47;9.82;;;3.00;;
50128;SDS011;36026;45.478;9.224;2022-07-01T17:45:51;9.52;;;2.28;;
50128;SDS011;36026;45.478;9.224;2022-07-01T17:48:53;5.93;;;2.47;;
50128;SDS011;36026;45.478;9.224;2022-07-01T17:51:55;5.57;;;2.50;;
50128;SDS011;36026;45.478;9.224;2022-07-01T17:54:58;7.63;;;2.05;;
50128;SDS011;36026;45.478;9.224;2022-07-01T17:58:00;3.05;;;2.15;;
50128;SDS011;36026;45.478;9.224;2022-07-01T18:01:02;6.30;;;2.55;;
50128;SDS011;36026;45.478;9.224;2022-07-01T18:04:05;6.43;;;2.70;;
50128;SDS011;36026;45.478;9.224;2022-07-01T18:07:08;3.10;;;1.92;;
50128;SDS011;36026;45.478;9.224;2022-07-01T18:10:11;5.70;;;2.60;;
50128;SDS011;36026;45.478;9.224;2022-07-01T18:13:13;3.13;;;2.30;;
50128;SDS011;36026;45.478;9.224;2022-07-01T18:16:21;2.83;;;2.08;;
50128;SDS011;36026;45.478;9.224;2022-07-01T18:19:43;3.72;;;1.92;;
50128;SDS011;36026;45.478;9.224;2022-07-01T18:22:50;3.95;;;2.33;;
50128;SDS011;36026;45.478;9.224;2022-07-01T18:25:59;3.63;;;2.05;;
50128;SDS011;36026;45.478;9.224;2022-07-01T18:29:01;5.28;;;2.90;;
50128;SDS011;36026;45.478;9.224;2022-07-01T18:32:04;5.10;;;2.30;;
50128;SDS011;36026;45.478;9.224;2022-07-01T18:35:08;3.80;;;1.80;;
50128;SDS011;36026;45.478;9.224;2022-07-01T18:38:12;3.67;;;2.20;;
50128;SDS011;36026;45.478;9.224;2022-07-01T18:41:15;3.90;;;1.95;;
50128;SDS011;36026;45.478;9.224;2022-07-01T18:44:17;6.70;;;2.50;;
50128;SDS011;36026;45.478;9.224;2022-07-01T18:47:19;4.47;;;2.63;;
50128;SDS011;36026;45.478;9.224;2022-07-01T18:50:21;7.22;;;2.95;;
50128;SDS011;36026;45.478;9.224;2022-07-01T18:56:26;5.20;;;2.70;;